Time;durP1;ratioP1;P1;durP2;ratioP2;P2;SDS_P1;SDS_P2;PMS_P1;PMS_P2;Temp;Humidity;BMP_temperature;BMP_pressure;BME280_temperature;BME280_humidity;BME280_pressure;Samples;Min_cycle;Max_cycle;Signal;HPM_P1;HPM_P2
2022/05/26 00:00:07;;;;;;;2.83;1.60;;;15.90;83.80;;;;;;5056872;28;20421;-85
2022/05/26 00:02:32;;;;;;;1.80;1.70;;;15.90;84.00;;;;;;5059310;28;21005;-82
2022/05/26 00:04:58;;;;;;;2.23;1.80;;;15.90;83.80;;;;;;5050413;28;20414;-82
2022/05/26 00:07:23;;;;;;;4.40;1.80;;;15.90;84.00;;;;;;5062910;28;20195;-82
2022/05/26 00:09:49;;;;;;;2.07;1.43;;;15.90;83.90;;;;;;5053888;28;20663;-82
2022/05/26 00:12:16;;;;;;;3.97;1.90;;;15.90;83.90;;;;;;5067062;28;20202;-82
2022/05/26 00:14:42;;;;;;;3.43;1.57;;;15.90;83.90;;;;;;5070519;28;20186;-82
2022/05/26 00:17:08;;;;;;;4.13;1.80;;;15.90;83.80;;;;;;5062852;28;20693;-83
2022/05/26 00:19:34;;;;;;;2.20;1.50;;;15.90;84.10;;;;;;5051574;28;20176;-82
2022/05/26 00:21:59;;;;;;;2.77;1.50;;;15.90;84.20;;;;;;5057739;28;20187;-82
2022/05/26 00:24:25;;;;;;;4.13;1.60;;;15.90;84.40;;;;;;5058670;28;20767;-83
2022/05/26 00:26:51;;;;;;;5.10;1.73;;;15.90;84.20;;;;;;5050772;28;20227;-82
2022/05/26 00:29:17;;;;;;;3.97;1.57;;;15.90;84.40;;;;;;5062746;28;20184;-82
2022/05/26 00:31:43;;;;;;;2.80;1.50;;;15.90;84.60;;;;;;5046410;28;20418;-82
2022/05/26 00:34:08;;;;;;;1.67;1.40;;;15.90;84.80;;;;;;5057572;28;20511;-82
2022/05/26 00:36:44;;;;;;;3.20;1.57;;;15.90;85.00;;;;;;5050098;28;20438;-82
2022/05/26 00:39:13;;;;;;;5.43;1.60;;;15.90;85.00;;;;;;5047445;28;20196;-82
2022/05/26 00:41:41;;;;;;;2.80;1.37;;;15.90;85.10;;;;;;5060756;28;20444;-82
2022/05/26 00:44:07;;;;;;;1.80;1.60;;;15.90;85.20;;;;;;5056093;28;20418;-82
2022/05/26 00:46:42;;;;;;;3.73;1.60;;;15.90;85.30;;;;;;5065578;28;20536;-82
2022/05/26 00:49:13;;;;;;;5.23;1.47;;;15.90;85.40;;;;;;5049379;28;20183;-81
2022/05/26 00:51:39;;;;;;;6.83;1.77;;;15.80;85.20;;;;;;5053725;28;20494;-82
2022/05/26 00:54:13;;;;;;;5.03;1.53;;;15.80;85.30;;;;;;5056815;28;20446;-82
2022/05/26 00:56:49;;;;;;;1.97;1.30;;;15.80;85.60;;;;;;5060688;28;20588;-82
2022/05/26 00:59:42;;;;;;;4.07;1.50;;;15.80;85.50;;;;;;5049129;28;20453;-82
2022/05/26 01:02:08;;;;;;;5.83;1.53;;;15.70;85.60;;;;;;5055850;28;20415;-82
2022/05/26 01:04:47;;;;;;;2.23;1.27;;;15.70;85.60;;;;;;5059136;28;20477;-82
2022/05/26 01:07:21;;;;;;;3.97;1.63;;;15.70;86.00;;;;;;5049413;28;20890;-82
2022/05/26 01:09:47;;;;;;;2.20;1.40;;;15.70;86.00;;;;;;5058482;28;20420;-82
2022/05/26 01:12:12;;;;;;;2.03;1.40;;;15.70;85.90;;;;;;5057121;28;20445;-81
2022/05/26 01:14:47;;;;;;;2.03;1.63;;;15.70;86.00;;;;;;5051137;28;20636;-81
2022/05/26 01:17:40;;;;;;;1.90;1.53;;;15.70;86.00;;;;;;5061582;28;20190;-82
2022/05/26 01:20:36;;;;;;;2.70;1.43;;;15.70;86.10;;;;;;5055410;28;20416;-82
2022/05/26 01:23:02;;;;;;;4.37;1.67;;;15.70;86.10;;;;;;5067304;28;20410;-82
2022/05/26 01:25:33;;;;;;;2.70;1.50;;;15.70;86.10;;;;;;5060975;28;20437;-81
2022/05/26 01:28:24;;;;;;;2.27;1.43;;;15.70;85.80;;;;;;5052609;28;20775;-82
2022/05/26 01:31:08;;;;;;;1.90;1.43;;;15.70;86.00;;;;;;5049821;28;20441;-82
2022/05/26 01:33:48;;;;;;;2.47;1.40;;;15.70;85.80;;;;;;5035933;28;20453;-81
2022/05/26 01:36:43;;;;;;;8.83;1.97;;;15.70;85.70;;;;;;5053307;28;20430;-82
2022/05/26 01:39:27;;;;;;;1.83;1.30;;;15.70;85.70;;;;;;5023107;28;21061;-82
2022/05/26 01:42:16;;;;;;;2.80;1.67;;;15.70;85.70;;;;;;5022969;28;20420;-82
2022/05/26 01:44:54;;;;;;;1.80;1.37;;;15.70;86.00;;;;;;5022366;28;20959;-81
2022/05/26 01:47:46;;;;;;;1.83;1.37;;;15.70;85.80;;;;;;5022572;28;20443;-81
2022/05/26 01:50:20;;;;;;;2.33;1.60;;;15.80;85.40;;;;;;5023602;28;20423;-82
2022/05/26 01:53:12;;;;;;;2.83;1.40;;;15.80;85.30;;;;;;5023104;28;20858;-82
2022/05/26 01:55:46;;;;;;;1.57;1.40;;;15.80;84.80;;;;;;5023051;28;20464;-83
2022/05/26 01:58:43;;;;;;;1.40;1.17;;;15.80;84.90;;;;;;5023195;28;20544;-82
2022/05/26 02:01:12;;;;;;;2.07;1.40;;;15.90;85.00;;;;;;5009995;28;20430;-82
2022/05/26 02:03:40;;;;;;;2.03;1.37;;;15.90;84.90;;;;;;5022809;28;20411;-82
2022/05/26 02:06:30;;;;;;;3.63;1.37;;;15.90;85.10;;;;;;5022252;28;20455;-81
2022/05/26 02:09:03;;;;;;;2.93;1.47;;;15.90;84.80;;;;;;5043067;28;20468;-82
2022/05/26 02:11:31;;;;;;;4.00;1.30;;;15.90;84.80;;;;;;5061704;28;20481;-81
2022/05/26 02:14:14;;;;;;;1.30;1.10;;;15.90;84.80;;;;;;5061682;28;20410;-82
2022/05/26 02:16:47;;;;;;;1.50;1.30;;;15.90;84.90;;;;;;5062619;28;20448;-81
2022/05/26 02:19:34;;;;;;;3.13;1.57;;;15.90;84.90;;;;;;5061004;28;20464;-82
2022/05/26 02:22:09;;;;;;;1.60;1.30;;;15.90;85.00;;;;;;5060608;28;20435;-81
2022/05/26 02:24:43;;;;;;;3.60;1.40;;;15.90;84.80;;;;;;5061410;28;20420;-82
2022/05/26 02:27:09;;;;;;;3.53;1.63;;;15.90;84.90;;;;;;5060703;28;20471;-85
2022/05/26 02:29:53;;;;;;;4.60;1.63;;;15.90;84.90;;;;;;5061550;28;20492;-82
2022/05/26 02:32:23;;;;;;;1.73;1.30;;;15.90;85.00;;;;;;5061032;28;20605;-82
2022/05/26 02:34:51;;;;;;;1.70;1.30;;;15.90;85.00;;;;;;5061883;28;20414;-82
2022/05/26 02:37:19;;;;;;;3.20;1.60;;;15.90;85.10;;;;;;5051992;28;20474;-82
2022/05/26 02:39:44;;;;;;;1.83;1.40;;;15.90;85.10;;;;;;5059998;28;20481;-82
2022/05/26 02:42:10;;;;;;;3.63;1.50;;;15.90;85.20;;;;;;5041583;28;20442;-82
2022/05/26 02:44:37;;;;;;;2.10;1.30;;;15.90;85.10;;;;;;5042216;28;20168;-82
2022/05/26 02:47:43;;;;;;;1.80;1.30;;;15.90;85.30;;;;;;5041306;28;20445;-84
2022/05/26 02:50:37;;;;;;;3.40;1.90;;;15.90;85.20;;;;;;5015231;28;20500;-82
2022/05/26 02:53:18;;;;;;;1.63;1.13;;;15.90;85.30;;;;;;5040688;28;20414;-82
2022/05/26 02:56:04;;;;;;;4.83;1.30;;;15.80;85.50;;;;;;5041672;28;20460;-82
2022/05/26 02:58:48;;;;;;;3.10;1.40;;;15.80;85.50;;;;;;5041705;28;20453;-82
2022/05/26 03:01:31;;;;;;;2.33;1.50;;;15.80;85.80;;;;;;5041529;28;20422;-82
2022/05/26 03:04:03;;;;;;;3.33;1.43;;;15.80;85.70;;;;;;5041851;28;20947;-82
2022/05/26 03:06:39;;;;;;;2.90;1.50;;;15.80;85.70;;;;;;5040817;28;20433;-82
2022/05/26 03:09:07;;;;;;;1.57;1.53;;;15.70;85.70;;;;;;5041325;28;20434;-82
2022/05/26 03:11:47;;;;;;;3.43;1.50;;;15.70;85.90;;;;;;5039504;28;20487;-83
2022/05/26 03:14:14;;;;;;;2.20;1.80;;;15.70;85.90;;;;;;5039666;28;20428;-82
2022/05/26 03:16:41;;;;;;;2.00;1.40;;;15.70;86.10;;;;;;5039907;28;20705;-83
2022/05/26 03:19:07;;;;;;;2.23;2.03;;;15.70;86.00;;;;;;5040738;28;20458;-82
2022/05/26 03:21:33;;;;;;;1.90;1.20;;;15.70;86.10;;;;;;5054269;28;20940;-82
2022/05/26 03:23:59;;;;;;;2.63;1.30;;;15.70;86.30;;;;;;5061823;28;20704;-82
2022/05/26 03:26:25;;;;;;;1.93;1.30;;;15.70;86.10;;;;;;5061583;28;20199;-82
2022/05/26 03:28:50;;;;;;;2.27;1.40;;;15.70;86.30;;;;;;5065008;28;20187;-82
2022/05/26 03:31:16;;;;;;;1.73;1.20;;;15.70;86.40;;;;;;5064673;28;20193;-82
2022/05/26 03:41:54;;;;;;;4.57;1.27;;;15.70;86.90;;;;;;5043025;28;20460;-84
2022/05/26 03:44:20;;;;;;;2.60;1.30;;;15.70;86.90;;;;;;5024786;28;20419;-83
2022/05/26 03:46:47;;;;;;;3.57;1.60;;;15.70;86.80;;;;;;5024797;28;20208;-82
2022/05/26 03:49:13;;;;;;;1.37;1.20;;;15.70;86.90;;;;;;5024694;28;20458;-82
2022/05/26 03:51:39;;;;;;;3.57;1.60;;;15.70;86.80;;;;;;5024451;28;20425;-82
2022/05/26 03:54:05;;;;;;;5.70;1.73;;;15.70;86.70;;;;;;5024710;28;20244;-83
2022/05/26 03:56:30;;;;;;;1.83;1.27;;;15.70;87.20;;;;;;5023477;28;20466;-83
2022/05/26 03:58:56;;;;;;;1.80;1.20;;;15.70;86.90;;;;;;5024414;28;20204;-82
2022/05/26 04:01:22;;;;;;;1.70;1.33;;;15.70;87.20;;;;;;5024198;28;20240;-83
2022/05/26 04:03:48;;;;;;;1.73;1.27;;;15.70;87.50;;;;;;5042977;28;20638;-83
2022/05/26 04:06:15;;;;;;;8.03;1.60;;;15.70;87.40;;;;;;5023840;28;20497;-82
2022/05/26 04:08:41;;;;;;;2.63;1.50;;;15.70;87.50;;;;;;5025127;28;20912;-82
2022/05/26 04:11:07;;;;;;;1.40;1.40;;;15.70;87.40;;;;;;5024810;28;20482;-83
2022/05/26 04:13:32;;;;;;;2.13;1.53;;;15.80;87.50;;;;;;5024950;28;20427;-82
2022/05/26 04:15:58;;;;;;;2.10;1.43;;;15.80;87.40;;;;;;5025025;28;20439;-81
2022/05/26 04:18:24;;;;;;;2.63;1.43;;;15.80;87.60;;;;;;5024428;28;20208;-82
2022/05/26 04:20:49;;;;;;;1.63;1.23;;;15.80;87.30;;;;;;5025492;28;20184;-81
2022/05/26 04:23:15;;;;;;;4.70;1.53;;;15.80;87.50;;;;;;5025115;28;20172;-82
2022/05/26 04:25:40;;;;;;;3.67;1.60;;;15.80;87.70;;;;;;5024820;28;20207;-83
2022/05/26 04:28:06;;;;;;;2.27;1.47;;;15.80;88.00;;;;;;5024564;28;20210;-82
2022/05/26 04:30:32;;;;;;;4.00;1.20;;;15.80;87.60;;;;;;5025393;28;20185;-81
2022/05/26 04:32:58;;;;;;;1.83;1.20;;;15.90;87.80;;;;;;5024530;28;20426;-82
2022/05/26 04:35:23;;;;;;;1.73;1.30;;;15.90;88.00;;;;;;5024236;28;20180;-81
2022/05/26 04:37:49;;;;;;;22.33;2.87;;;15.90;87.70;;;;;;5036414;28;20207;-81
2022/05/26 04:40:15;;;;;;;1.87;1.37;;;15.90;88.20;;;;;;5042938;28;20618;-81
2022/05/26 04:42:41;;;;;;;4.10;1.23;;;15.90;88.10;;;;;;5043993;28;20202;-82
2022/05/26 04:45:08;;;;;;;2.53;1.40;;;15.90;88.10;;;;;;5043619;28;20524;-82
2022/05/26 04:47:33;;;;;;;3.17;1.60;;;16.00;88.50;;;;;;5043898;28;20395;-82
2022/05/26 04:49:59;;;;;;;3.50;1.50;;;16.00;88.70;;;;;;5061304;28;20429;-82
2022/05/26 04:52:25;;;;;;;3.27;1.30;;;16.00;88.10;;;;;;5043075;28;20189;-82
2022/05/26 04:54:54;;;;;;;1.50;1.30;;;16.00;88.70;;;;;;5043340;28;20179;-82
2022/05/26 04:57:22;;;;;;;3.13;1.20;;;16.00;88.50;;;;;;5043237;28;20820;-82
2022/05/26 04:59:49;;;;;;;1.53;1.40;;;16.00;88.60;;;;;;5044321;28;20407;-82
2022/05/26 05:02:16;;;;;;;3.93;1.47;;;16.00;89.20;;;;;;5043273;28;20437;-82
2022/05/26 05:04:44;;;;;;;2.10;1.40;;;16.00;88.60;;;;;;5044631;28;20410;-81
2022/05/26 05:07:11;;;;;;;1.87;1.20;;;16.00;88.80;;;;;;5044980;28;20804;-82
2022/05/26 05:09:40;;;;;;;2.30;1.20;;;16.10;88.30;;;;;;5045127;28;20452;-82
2022/05/26 05:12:07;;;;;;;3.10;1.40;;;16.10;88.80;;;;;;5045548;28;20430;-81
2022/05/26 05:14:55;;;;;;;2.83;1.43;;;16.10;89.00;;;;;;5064239;28;20441;-82
2022/05/26 05:17:22;;;;;;;3.93;2.30;;;16.10;88.70;;;;;;5045025;28;20725;-81
2022/05/26 05:19:49;;;;;;;1.87;1.80;;;16.10;88.60;;;;;;5044656;28;20419;-82
2022/05/26 05:22:29;;;;;;;3.20;1.90;;;16.10;88.50;;;;;;5045205;28;20418;-82
2022/05/26 05:25:05;;;;;;;2.30;1.30;;;16.10;88.90;;;;;;5044144;28;20418;-82
2022/05/26 05:27:37;;;;;;;1.53;1.20;;;16.00;88.90;;;;;;5044151;28;20456;-83
2022/05/26 05:30:19;;;;;;;1.73;1.40;;;16.00;89.40;;;;;;5042926;28;20430;-79
2022/05/26 05:33:05;;;;;;;2.00;1.40;;;16.00;89.20;;;;;;5062357;28;20414;-82
2022/05/26 05:35:42;;;;;;;3.73;1.60;;;16.00;89.30;;;;;;5043283;28;20808;-80
2022/05/26 05:38:08;;;;;;;2.53;1.60;;;16.10;89.30;;;;;;5026070;28;20585;-81
2022/05/26 05:40:35;;;;;;;1.40;1.20;;;16.20;89.40;;;;;;5022236;28;20465;-81
2022/05/26 05:43:01;;;;;;;3.30;1.83;;;16.30;89.90;;;;;;5041092;28;20181;-81
2022/05/26 05:45:27;;;;;;;2.57;1.63;;;16.50;89.70;;;;;;5023139;28;20442;-81
2022/05/26 05:47:52;;;;;;;9.10;2.10;;;16.60;89.10;;;;;;5023246;28;20415;-81
2022/05/26 05:50:18;;;;;;;1.90;1.40;;;16.70;89.40;;;;;;5023259;28;20942;-81
2022/05/26 05:52:44;;;;;;;3.10;1.70;;;16.70;89.40;;;;;;5030078;28;20207;-81
2022/05/26 05:55:09;;;;;;;3.80;2.40;;;16.80;88.50;;;;;;5050321;28;20195;-82
2022/05/26 05:57:35;;;;;;;2.43;1.30;;;16.80;88.70;;;;;;5034278;28;20187;-81
2022/05/26 06:00:01;;;;;;;2.63;1.33;;;16.80;88.80;;;;;;5032658;28;20234;-81
2022/05/26 06:02:27;;;;;;;5.47;1.30;;;16.90;88.50;;;;;;5032374;28;20931;-80
2022/05/26 06:04:52;;;;;;;4.93;2.83;;;16.90;88.80;;;;;;5028127;28;20456;-81
2022/05/26 06:07:21;;;;;;;2.07;1.50;;;16.90;89.00;;;;;;5031700;28;20204;-81
2022/05/26 06:09:48;;;;;;;4.53;1.30;;;17.00;88.30;;;;;;5033154;28;20171;-81
2022/05/26 06:12:14;;;;;;;3.80;1.60;;;17.00;88.20;;;;;;5031964;28;20438;-84
2022/05/26 06:14:44;;;;;;;5.30;1.60;;;17.00;88.40;;;;;;5032539;28;20422;-82
2022/05/26 06:17:13;;;;;;;2.90;1.20;;;17.00;88.50;;;;;;5033675;28;20450;-81
2022/05/26 06:19:40;;;;;;;4.33;1.33;;;17.00;88.70;;;;;;5050990;28;20421;-82
2022/05/26 06:22:12;;;;;;;2.30;1.40;;;17.00;88.80;;;;;;5033133;28;20423;-85
2022/05/26 06:24:39;;;;;;;1.30;1.20;;;17.00;88.80;;;;;;5032419;28;20398;-81
2022/05/26 06:29:49;;;;;;;4.30;1.33;;;17.00;89.20;;;;;;5031382;28;20523;-82
2022/05/26 06:29:52;;;;;;;1.63;1.57;;;17.00;89.30;;;;;;5060800;28;20390;-82
2022/05/26 06:37:51;;;;;;;2.53;1.40;;;17.20;88.90;;;;;;5060289;28;20461;-82
2022/05/26 06:40:17;;;;;;;1.73;1.30;;;17.20;89.60;;;;;;5057305;28;20677;-84
2022/05/26 06:42:52;;;;;;;4.77;1.57;;;17.20;89.20;;;;;;5039511;28;20175;-83
2022/05/26 06:45:19;;;;;;;2.03;1.87;;;17.20;89.30;;;;;;5036962;28;20444;-83
2022/05/26 06:47:45;;;;;;;3.67;1.57;;;17.20;89.30;;;;;;5041177;28;20433;-84
2022/05/26 06:50:11;;;;;;;1.27;1.20;;;17.20;89.70;;;;;;5041434;28;20419;-84
2022/05/26 06:52:38;;;;;;;4.33;1.40;;;17.30;89.60;;;;;;5041723;28;20176;-82
2022/05/26 06:55:06;;;;;;;2.07;1.40;;;17.30;89.60;;;;;;5041188;28;20434;-83
2022/05/26 06:57:31;;;;;;;2.07;1.70;;;17.40;89.70;;;;;;5040628;28;20418;-84
2022/05/26 06:59:57;;;;;;;3.03;1.87;;;17.40;89.50;;;;;;5040419;28;21432;-81
2022/05/26 07:02:24;;;;;;;3.00;1.37;;;17.40;89.70;;;;;;5037380;28;20176;-79
2022/05/26 07:04:50;;;;;;;6.00;1.80;;;17.40;89.70;;;;;;5033696;28;20409;-81
2022/05/26 07:07:16;;;;;;;3.20;1.80;;;17.50;89.90;;;;;;5040673;28;20434;-82
2022/05/26 07:09:42;;;;;;;3.67;1.60;;;17.50;89.30;;;;;;5031702;28;20782;-85
2022/05/26 07:12:08;;;;;;;2.70;1.50;;;17.50;89.20;;;;;;5033823;28;20618;-80
2022/05/26 07:14:34;;;;;;;1.97;1.57;;;17.50;89.50;;;;;;5043256;28;20665;-82
2022/05/26 07:17:00;;;;;;;2.97;1.37;;;17.50;89.30;;;;;;5049197;28;20442;-80
2022/05/26 07:19:26;;;;;;;2.20;1.67;;;17.50;89.60;;;;;;5043619;28;20203;-82
2022/05/26 07:21:52;;;;;;;3.83;1.57;;;17.60;89.30;;;;;;5043319;28;20436;-83
2022/05/26 07:24:19;;;;;;;4.10;1.60;;;17.60;89.10;;;;;;5042424;28;20450;-82
2022/05/26 07:26:46;;;;;;;5.70;1.70;;;17.60;89.30;;;;;;5043145;28;20311;-82
2022/05/26 07:29:12;;;;;;;2.60;1.70;;;17.70;89.90;;;;;;5040182;28;20460;-83
2022/05/26 07:31:38;;;;;;;2.90;1.73;;;17.70;89.20;;;;;;5040844;28;20559;-79
2022/05/26 07:34:04;;;;;;;2.07;1.40;;;17.70;89.50;;;;;;5042260;28;20509;-83
2022/05/26 07:42:03;;;;;;;6.50;1.77;;;17.90;88.90;;;;;;5060866;28;20401;-82
2022/05/26 07:44:32;;;;;;;1.60;1.50;;;18.10;89.50;;;;;;5046741;28;20468;-82
2022/05/26 07:46:57;;;;;;;2.10;1.63;;;18.20;88.70;;;;;;5041557;28;20500;-83
2022/05/26 07:49:23;;;;;;;2.77;1.47;;;18.30;88.60;;;;;;5040706;28;20418;-82
2022/05/26 07:51:49;;;;;;;2.43;1.60;;;18.30;88.00;;;;;;5052504;28;20201;-85
2022/05/26 07:54:15;;;;;;;3.00;1.50;;;18.30;87.60;;;;;;5048723;28;20418;-83
2022/05/26 07:56:41;;;;;;;2.93;1.53;;;18.20;88.20;;;;;;5046770;28;20253;-83
2022/05/26 07:59:07;;;;;;;4.40;1.70;;;18.20;88.60;;;;;;5042514;28;20205;-85
2022/05/26 08:01:33;;;;;;;1.53;1.50;;;18.30;88.70;;;;;;5038787;28;20179;-83
2022/05/26 08:03:59;;;;;;;2.23;1.60;;;18.20;88.30;;;;;;5038560;28;20454;-84
2022/05/26 08:06:25;;;;;;;3.03;1.60;;;18.20;88.20;;;;;;5053520;28;20446;-82
2022/05/26 08:08:51;;;;;;;3.77;1.70;;;18.20;88.80;;;;;;5061285;28;20183;-83
2022/05/26 08:11:16;;;;;;;1.60;1.43;;;18.20;88.40;;;;;;5039491;28;20508;-83
2022/05/26 08:13:42;;;;;;;4.00;1.70;;;18.20;88.40;;;;;;5039653;28;20207;-82
2022/05/26 08:16:08;;;;;;;2.30;1.90;;;18.20;88.30;;;;;;5041420;28;20639;-82
2022/05/26 08:18:34;;;;;;;5.90;1.70;;;18.20;88.50;;;;;;5045865;28;20257;-82
2022/05/26 08:21:07;;;;;;;4.67;1.80;;;18.20;89.00;;;;;;5044564;28;20180;-80
2022/05/26 08:23:32;;;;;;;2.27;1.40;;;18.30;88.40;;;;;;5050422;28;20426;-81
2022/05/26 08:25:58;;;;;;;2.00;1.30;;;18.20;88.20;;;;;;5045782;28;20433;-81
2022/05/26 08:28:24;;;;;;;2.47;1.30;;;18.20;89.00;;;;;;5044042;28;20206;-83
2022/05/26 08:30:50;;;;;;;8.07;1.90;;;18.20;88.90;;;;;;5042645;28;20184;-79
2022/05/26 08:33:15;;;;;;;5.03;2.03;;;18.30;88.70;;;;;;5045709;28;20168;-79
2022/05/26 08:35:41;;;;;;;3.40;1.83;;;18.30;88.60;;;;;;5048593;28;20434;-80
2022/05/26 08:38:08;;;;;;;3.13;1.50;;;18.40;89.00;;;;;;5037696;28;20196;-80
2022/05/26 08:40:46;;;;;;;2.17;1.70;;;18.40;88.50;;;;;;5040476;28;20279;-81
2022/05/26 08:43:21;;;;;;;2.53;1.70;;;18.50;88.40;;;;;;5042500;28;20430;-80
2022/05/26 08:45:52;;;;;;;3.57;1.70;;;18.60;88.60;;;;;;5038236;28;20449;-80
2022/05/26 08:48:55;;;;;;;3.60;1.97;;;18.70;88.20;;;;;;5045639;28;21020;-80
2022/05/26 08:51:28;;;;;;;2.60;1.57;;;18.90;87.90;;;;;;5041189;28;20825;-81
2022/05/26 08:53:57;;;;;;;2.60;1.70;;;19.00;88.50;;;;;;5038104;28;20430;-80
2022/05/26 08:56:27;;;;;;;4.60;2.30;;;19.00;87.60;;;;;;5035789;28;20571;-80
2022/05/26 08:58:59;;;;;;;1.80;1.57;;;19.00;87.40;;;;;;5037456;28;20450;-82
2022/05/26 09:01:28;;;;;;;5.27;1.70;;;18.90;87.20;;;;;;5039554;28;20395;-80
2022/05/26 09:03:53;;;;;;;1.70;1.60;;;18.90;87.80;;;;;;5038713;28;20443;-82
2022/05/26 09:06:20;;;;;;;1.70;1.57;;;18.90;88.20;;;;;;5038196;28;20449;-80
2022/05/26 09:14:34;;;;;;;1.67;1.57;;;19.10;88.10;;;;;;5056992;28;20422;-81
2022/05/26 09:17:04;;;;;;;3.90;1.47;;;19.10;87.90;;;;;;5038097;28;20446;-80
2022/05/26 09:19:44;;;;;;;2.50;1.77;;;19.10;87.80;;;;;;5039152;28;20518;-79
2022/05/26 09:22:46;;;;;;;1.77;1.60;;;19.20;88.00;;;;;;5039777;28;20529;-82
2022/05/26 09:25:29;;;;;;;2.90;1.80;;;19.30;88.00;;;;;;5038455;28;20426;-82
2022/05/26 09:27:55;;;;;;;2.23;1.50;;;19.40;87.80;;;;;;5057479;28;20445;-81
2022/05/26 09:30:29;;;;;;;4.63;2.30;;;19.40;87.20;;;;;;5038730;28;20414;-81
2022/05/26 09:32:56;;;;;;;4.03;1.90;;;19.40;86.40;;;;;;5038628;28;20229;-80
2022/05/26 09:35:25;;;;;;;4.60;1.43;;;19.30;86.70;;;;;;5037858;28;20426;-81
2022/05/26 09:37:54;;;;;;;2.17;1.70;;;19.20;87.00;;;;;;5027939;28;20478;-80
2022/05/26 09:40:28;;;;;;;4.70;1.80;;;19.20;87.40;;;;;;5037469;28;20445;-83
2022/05/26 09:43:22;;;;;;;4.43;1.70;;;19.30;87.40;;;;;;5036081;28;20807;-82
2022/05/26 09:45:51;;;;;;;1.53;1.40;;;19.20;87.00;;;;;;5038846;28;20446;-80
2022/05/26 09:48:18;;;;;;;6.57;2.17;;;19.20;87.50;;;;;;5060651;28;20485;-81
2022/05/26 09:50:49;;;;;;;3.20;1.63;;;19.10;87.90;;;;;;5051202;28;20426;-80
2022/05/26 09:53:31;;;;;;;2.63;1.90;;;19.20;87.70;;;;;;5039987;28;20807;-81
2022/05/26 09:55:58;;;;;;;4.33;2.07;;;19.10;87.90;;;;;;5056543;28;20555;-82
2022/05/26 09:58:30;;;;;;;2.20;1.60;;;18.90;87.80;;;;;;5040136;28;20577;-81
2022/05/26 10:00:59;;;;;;;2.07;1.60;;;18.80;88.70;;;;;;5025760;28;20517;-81
2022/05/26 10:03:53;;;;;;;5.40;1.70;;;18.80;88.30;;;;;;5035908;28;20499;-82
2022/05/26 10:06:30;;;;;;;6.30;1.80;;;18.80;88.70;;;;;;5026032;28;20989;-82
2022/05/26 10:08:58;;;;;;;15.10;2.10;;;18.80;89.40;;;;;;5060462;28;20420;-81
2022/05/26 10:11:52;;;;;;;2.33;1.83;;;18.80;88.90;;;;;;5059455;28;21310;-81
2022/05/26 10:14:46;;;;;;;3.67;1.90;;;18.80;89.00;;;;;;5056423;28;20418;-81
2022/05/26 10:17:37;;;;;;;2.47;1.83;;;18.70;89.70;;;;;;5032219;28;21004;-82
2022/05/26 10:20:21;;;;;;;3.77;1.90;;;18.60;89.80;;;;;;5052781;28;20484;-81
2022/05/26 10:23:00;;;;;;;3.00;1.90;;;18.60;90.20;;;;;;5037636;28;20432;-82
2022/05/26 10:25:30;;;;;;;1.70;1.70;;;18.70;90.50;;;;;;5037693;28;20434;-81
2022/05/26 10:28:27;;;;;;;4.80;1.60;;;18.80;89.70;;;;;;5040071;28;20421;-81
2022/05/26 10:30:59;;;;;;;5.30;1.70;;;18.80;89.40;;;;;;5045399;28;20502;-81
2022/05/26 10:33:40;;;;;;;3.47;2.03;;;18.90;87.60;;;;;;5046549;28;20409;-80
2022/05/26 10:36:44;;;;;;;4.57;2.07;;;18.80;87.40;;;;;;5052540;28;20433;-80
2022/05/26 10:39:38;;;;;;;3.50;2.43;;;18.80;87.00;;;;;;4967573;28;20465;-81
2022/05/26 10:42:19;;;;;;;3.77;2.27;;;18.80;87.10;;;;;;4968974;28;20428;-80
2022/05/26 10:44:55;;;;;;;3.80;2.50;;;18.80;87.70;;;;;;5023618;28;20547;-81
2022/05/26 10:47:29;;;;;;;5.63;2.87;;;18.90;87.60;;;;;;5052867;28;20440;-81
2022/05/26 10:50:34;;;;;;;6.47;1.90;;;19.10;88.00;;;;;;5049682;28;20460;-81
2022/05/26 10:53:23;;;;;;;5.17;2.80;;;19.30;87.20;;;;;;5025965;28;20506;-80
2022/05/26 10:56:26;;;;;;;3.67;2.10;;;19.50;88.40;;;;;;5047342;28;20437;-81
2022/05/26 10:59:41;;;;;;;3.03;2.33;;;19.80;87.00;;;;;;5018559;28;20472;-80
2022/05/26 11:02:14;;;;;;;4.87;2.00;;;20.00;85.70;;;;;;4988910;28;20478;-80
2022/05/26 11:05:04;;;;;;;3.80;1.87;;;20.00;86.40;;;;;;4986150;28;20449;-81
2022/05/26 11:07:53;;;;;;;1.40;1.40;;;20.10;85.50;;;;;;5021658;28;20474;-82
2022/05/26 11:10:27;;;;;;;3.70;2.07;;;20.30;85.80;;;;;;5036256;28;20468;-81
2022/05/26 11:13:05;;;;;;;3.23;1.90;;;20.50;84.50;;;;;;5044440;28;20484;-82
2022/05/26 11:18:45;;;;;;;3.80;2.20;;;20.80;84.90;;;;;;5066897;28;20529;-79
2022/05/26 11:21:17;;;;;;;3.17;2.20;;;20.70;84.90;;;;;;5034892;28;20439;-81
2022/05/26 11:23:43;;;;;;;2.00;1.80;;;20.70;84.60;;;;;;5056668;28;20418;-81
2022/05/26 11:26:38;;;;;;;2.00;1.90;;;20.70;84.60;;;;;;5056486;28;20803;-79
2022/05/26 11:29:34;;;;;;;2.70;1.63;;;20.80;84.90;;;;;;5039321;28;20211;-80
2022/05/26 11:38:04;;;;;;;3.17;1.80;;;21.20;83.00;;;;;;5060808;28;20789;-81
2022/05/26 11:40:42;;;;;;;2.23;2.03;;;21.30;83.30;;;;;;5050513;28;20916;-81
2022/05/26 11:43:08;;;;;;;4.20;2.30;;;21.20;81.90;;;;;;5035255;28;20479;-82
2022/05/26 11:45:48;;;;;;;4.30;2.27;;;21.00;82.40;;;;;;5034406;28;21020;-81
2022/05/26 11:48:32;;;;;;;2.50;1.97;;;20.90;82.80;;;;;;5038754;28;20425;-81
2022/05/26 11:51:22;;;;;;;2.30;2.03;;;20.90;82.50;;;;;;5057527;28;20431;-79
2022/05/26 11:53:50;;;;;;;8.37;2.70;;;21.00;82.30;;;;;;5033365;28;20833;-80
2022/05/26 11:56:28;;;;;;;7.03;2.60;;;21.00;83.10;;;;;;5045438;28;20531;-81
2022/05/26 11:59:32;;;;;;;2.53;2.07;;;21.10;82.70;;;;;;5043107;28;20464;-80
2022/05/26 12:02:01;;;;;;;2.43;2.10;;;21.10;82.50;;;;;;5042653;28;20417;-80
2022/05/26 12:04:33;;;;;;;7.97;2.53;;;21.20;82.80;;;;;;5054441;28;20429;-81
2022/05/26 12:07:04;;;;;;;4.67;1.97;;;21.30;82.50;;;;;;5049885;28;20437;-81
2022/05/26 12:09:49;;;;;;;2.80;1.77;;;21.50;82.80;;;;;;5056260;28;20449;-79
2022/05/26 12:12:18;;;;;;;3.47;2.07;;;21.70;83.40;;;;;;5046947;28;20470;-79
2022/05/26 12:15:07;;;;;;;3.30;2.10;;;21.80;81.20;;;;;;5042736;28;20410;-84
2022/05/26 12:17:41;;;;;;;2.73;2.00;;;21.70;81.10;;;;;;5045372;28;20430;-81
2022/05/26 12:20:10;;;;;;;2.23;1.87;;;21.50;82.00;;;;;;5060683;28;20413;-79
2022/05/26 12:22:42;;;;;;;3.40;1.80;;;21.30;82.40;;;;;;5050515;28;20438;-81
2022/05/26 12:25:27;;;;;;;3.07;2.07;;;21.20;82.60;;;;;;5051941;28;20425;-80
2022/05/26 12:28:05;;;;;;;5.10;1.93;;;21.10;83.90;;;;;;5061496;28;20422;-79
2022/05/26 12:30:46;;;;;;;2.77;2.20;;;21.20;83.20;;;;;;5043364;28;20425;-79
2022/05/26 12:33:20;;;;;;;1.73;1.70;;;21.20;82.80;;;;;;5040712;28;20421;-79
2022/05/26 12:36:29;;;;;;;2.93;2.00;;;21.30;82.90;;;;;;5042229;28;20441;-79
2022/05/26 12:39:17;;;;;;;3.20;1.70;;;21.10;82.80;;;;;;5049871;28;20905;-79
2022/05/26 12:42:05;;;;;;;3.53;2.13;;;20.90;83.50;;;;;;5050346;28;20490;-79
2022/05/26 12:45:01;;;;;;;2.60;1.87;;;20.60;83.80;;;;;;5053767;28;20542;-80
2022/05/26 12:48:00;;;;;;;1.70;1.50;;;20.50;84.40;;;;;;5048793;28;20821;-80
2022/05/26 12:50:26;;;;;;;1.80;1.43;;;20.40;84.40;;;;;;5052143;28;20421;-80
2022/05/26 12:52:55;;;;;;;3.87;2.10;;;20.70;84.40;;;;;;5038809;28;20437;-80
2022/05/26 12:55:33;;;;;;;7.00;1.80;;;21.00;83.60;;;;;;5041635;28;20422;-80
2022/05/26 12:58:10;;;;;;;1.80;1.40;;;20.90;82.90;;;;;;5039627;28;20446;-81
2022/05/26 13:00:43;;;;;;;3.10;2.37;;;20.90;84.00;;;;;;5051815;28;20770;-80
2022/05/26 13:03:29;;;;;;;5.53;1.93;;;21.20;83.50;;;;;;5057499;28;20421;-80
2022/05/26 13:06:07;;;;;;;1.80;1.80;;;21.60;82.90;;;;;;5038281;28;20434;-80
2022/05/26 13:08:55;;;;;;;4.10;2.00;;;22.00;82.30;;;;;;5051635;28;20429;-80
2022/05/26 13:11:25;;;;;;;3.50;2.30;;;22.20;80.70;;;;;;5058729;28;20507;-80
2022/05/26 13:13:57;;;;;;;5.37;2.97;;;22.30;80.60;;;;;;5077066;28;20891;-80
2022/05/26 13:16:41;;;;;;;2.00;1.70;;;22.30;80.40;;;;;;5050841;28;20453;-79
2022/05/26 13:19:14;;;;;;;2.57;1.67;;;22.00;80.10;;;;;;5046004;28;20545;-80
2022/05/26 13:21:42;;;;;;;7.10;1.63;;;21.70;80.80;;;;;;5038697;28;20449;-79
2022/05/26 13:24:29;;;;;;;2.53;1.80;;;21.60;82.00;;;;;;5039491;28;20768;-80
2022/05/26 13:27:11;;;;;;;2.37;1.80;;;21.40;82.60;;;;;;5057443;28;20434;-82
2022/05/26 13:29:43;;;;;;;1.80;1.60;;;21.20;83.00;;;;;;5038571;28;20453;-81
2022/05/26 13:34:58;;;;;;;1.63;1.60;;;20.80;84.10;;;;;;5077604;28;20508;-81
2022/05/26 13:37:23;;;;;;;3.10;1.57;;;20.60;84.90;;;;;;5029723;28;20435;-80
2022/05/26 13:40:06;;;;;;;2.17;1.57;;;20.50;85.10;;;;;;5018192;28;20291;-79
2022/05/26 13:42:34;;;;;;;2.40;1.60;;;20.30;85.60;;;;;;5016708;28;20180;-82
2022/05/26 13:45:01;;;;;;;5.57;1.70;;;20.20;85.60;;;;;;5022669;28;20848;-79
2022/05/26 13:47:27;;;;;;;3.00;1.83;;;20.20;86.40;;;;;;5037224;28;20442;-79
2022/05/26 13:50:00;;;;;;;3.60;1.67;;;20.50;86.00;;;;;;5036168;28;20421;-79
2022/05/26 13:52:28;;;;;;;2.40;1.73;;;20.90;85.20;;;;;;5037523;28;20581;-80
2022/05/26 13:55:06;;;;;;;2.20;1.70;;;21.20;84.90;;;;;;5037393;28;20939;-79